首页
METAR-TAF:

METAR-TAF

机场 :

Ponta Delgada, 亚速尔群岛, 葡萄牙

纬度: 37-44N, 经度: 025-42W, 海拔: 71米

当前天气观测

该预报发布于37分钟前的07:30 UTC
风速8节,风向,在西北北转东北之间变化
温度 19°C
湿度 83%
气压 1021 hPa
能见度10公里或以上
少量云层高于1800英尺
多云层高于3000英尺

METAR: LPPD 230730Z 36008KT 320V030 9999 FEW018 BKN030 19/16 Q1021

时间: 08:07 (08:07 UTC)

预报

该预报发布于3小时和7分钟前的05:00 UTC
预报有效从23日的 06点(UTC)到 24日的 06点(UTC)
风速8节,风向北转东北
能见度10公里或以上
少量云层高于2000英尺
多云层高于3500英尺
短暂存在
从 23日的 06点(UTC)到 24日的 06点(UTC)
散云层高于2500英尺

TAF: LPPD 230500Z 2306/2406 02008KT 9999 FEW020 BKN035 TEMPO 2306/2406 SCT025

超过4000个机场的气象观测和天气预报(METAR&TAF报告)。

可查询的气象台以黄色和红色小点在地图上表示。

将鼠标移到小点上方,可查看气象台名称。

然后点击查看天气观测和预报。

如需切换地图:点击带黑十字的绿色按钮放大地图;点击带横线的绿色按钮缩小地图;或者点击绿色箭头查看邻近地区的地图。


METAR-TAF: